メインページ
METAR-TAF:

METAR-TAF

空港 :

ビンガムトン, ニューヨーク, アメリカ合衆国

緯度: 42-12-28N, 経度: 075-58-53W, 海抜: 496m

現時点の気象観測

当レポートは1時間5分前の14:53(UTC)に作成
南東の風 8kt
気温 -10°C
湿度 56%
気圧 1024 hPa
視程: 16.1km
高度5000ftの千切れ雲あり
高度7000ftの曇り

METAR: KBGM 181453Z 14008KT 10SM BKN050 OVC070 M10/M17 A3025 RMK AO2 SLP278 T11001167 56043

時間: 10:58 (15:58 UTC)

予報

当レポートは4時間20分前の11:38(UTC)に作成
予報は18日の 12時(UTC)から 19日の 12時(UTC)まで有効
変向風 3kt
視程: 10km
高度10000ftの千切れ雲あり
18日の 1600時(UTC)から
南/南東の風 12kt
視程: 2.4km
高度1500ftの曇り
小雪, 高い地吹雪
19日の 0000時(UTC)から
の風 15kt、最大25ktの突風を伴う
視程: 1.6km
高度1500ftの曇り
弱いにわか雪, 高い地吹雪
19日の 0200時(UTC)から
の風 14kt
視程: 1.6km
高度1500ftの曇り
高い地吹雪

TAF: KBGM 181138Z 1812/1912 VRB03KT P6SM BKN100 FM181600 16012KT 1 1/2SM -SN BLSN OVC015 FM190000 18015G25KT 2SM -SHSN BLSN OVC015 FM190200 19014KT 2SM BLSN OVC015 WS020/21045KT

4,000以上の空港の気象観測と天気予報(METAR報とTAF報)

利用可能な観測所は地図上に黄色い丸と赤い丸で示す。

丸の上にカーソルを重ねると観測所名を参照できる。

次にクリックすると気象観測と天気予報を参照できる。

マップの切り替え:黒色「×」印の緑ボタンをクリックして拡大、「-」印の緑ボタンをクリックして縮小、緑色の三角印をクリックして隣りの地図に切り替え


METAR-TAF: